Time;durP1;ratioP1;P1;durP2;ratioP2;P2;SDS_P1;SDS_P2;PMS_P1;PMS_P2;Temp;Humidity;BMP_temperature;BMP_pressure;BME280_temperature;BME280_humidity;BME280_pressure;Samples;Min_cycle;Max_cycle;Signal;HPM_P1;HPM_P2
2022/02/21 00:00:17;;;;;;;1.13;0.65;;;;;;;24.12;19.43;97007.19;5071801;28;20024;-79
2022/02/21 00:02:46;;;;;;;0.75;0.35;;;;;;;23.65;19.79;97015.75;5081149;28;20036;-79
2022/02/21 00:05:16;;;;;;;1.17;0.70;;;;;;;23.79;19.81;97007.59;5073473;28;20021;-79
2022/02/21 00:07:46;;;;;;;1.17;0.43;;;;;;;23.74;19.91;97004.59;5071267;28;20049;-79
2022/02/21 00:10:14;;;;;;;0.60;0.50;;;;;;;23.52;20.18;96998.22;5071922;28;20031;-79
2022/02/21 00:12:41;;;;;;;0.40;0.30;;;;;;;23.80;19.63;96981.16;5075818;28;20028;-80
2022/02/21 00:15:09;;;;;;;2.25;0.70;;;;;;;23.97;19.62;96973.25;5083782;28;20561;-79
2022/02/21 00:17:35;;;;;;;1.10;0.57;;;;;;;24.13;19.41;96972.28;5082126;28;20171;-79
2022/02/21 00:20:02;;;;;;;1.88;0.70;;;;;;;24.31;19.42;96956.31;5079580;28;20038;-79
2022/02/21 00:22:29;;;;;;;1.15;0.50;;;;;;;23.87;19.90;96963.25;5076927;28;20034;-79
2022/02/21 00:24:55;;;;;;;1.02;0.43;;;;;;;25.06;18.56;96948.38;5072487;28;20037;-79
2022/02/21 00:27:21;;;;;;;0.32;0.30;;;;;;;24.36;19.17;96943.69;5074080;28;20028;-79
2022/02/21 00:29:48;;;;;;;1.48;0.77;;;;;;;24.91;18.61;96933.38;5073445;28;20032;-79
2022/02/21 00:32:14;;;;;;;1.38;0.40;;;;;;;24.78;18.84;96924.31;5054770;28;20509;-78
2022/02/21 00:34:41;;;;;;;0.77;0.40;;;;;;;25.54;17.81;96926.94;5075365;28;20043;-79
2022/02/21 00:37:07;;;;;;;0.38;0.30;;;;;;;25.34;18.36;96908.53;5075466;28;20040;-79
2022/02/21 00:39:33;;;;;;;0.30;0.30;;;;;;;24.68;18.72;96910.25;5073093;28;20757;-79
2022/02/21 00:41:59;;;;;;;0.35;0.30;;;;;;;24.92;18.38;96906.88;5082408;28;20036;-79
2022/02/21 00:44:25;;;;;;;0.40;0.30;;;;;;;24.33;19.08;96896.94;5071642;28;20045;-79
2022/02/21 00:46:52;;;;;;;0.20;0.20;;;;;;;24.50;18.92;96892.59;5073510;28;20459;-79
2022/02/21 00:49:18;;;;;;;0.45;0.15;;;;;;;24.74;18.52;96901.97;5076858;28;20040;-79
2022/02/21 00:51:44;;;;;;;0.20;0.20;;;;;;;25.10;18.13;96884.38;5078672;28;20440;-79
2022/02/21 00:54:10;;;;;;;0.55;0.30;;;;;;;25.53;17.92;96886.06;5076758;28;20111;-79
2022/02/21 00:56:36;;;;;;;0.30;0.30;;;;;;;25.12;18.18;96877.03;5077082;28;20032;-79
2022/02/21 00:59:02;;;;;;;0.30;0.28;;;;;;;24.91;18.22;96880.03;5071409;28;20474;-80
2022/02/21 01:01:28;;;;;;;0.43;0.25;;;;;;;24.85;18.21;96877.06;5069985;28;20033;-79
2022/02/21 01:03:54;;;;;;;0.80;0.30;;;;;;;24.86;18.19;96875.03;5079963;28;20501;-80
2022/02/21 01:06:20;;;;;;;0.63;0.30;;;;;;;25.36;17.73;96869.53;5068530;28;20044;-80
2022/02/21 01:08:46;;;;;;;1.02;0.20;;;;;;;25.77;17.35;96856.75;5080173;28;20063;-79
2022/02/21 01:11:15;;;;;;;0.82;0.30;;;;;;;25.42;17.73;96864.81;5075887;28;20033;-79
2022/02/21 01:13:41;;;;;;;0.50;0.35;;;;;;;25.27;17.92;96849.88;5045375;28;20033;-80
2022/02/21 01:16:08;;;;;;;0.60;0.20;;;;;;;25.84;17.40;96855.63;5071941;28;20033;-79
2022/02/21 01:18:34;;;;;;;0.40;0.40;;;;;;;25.93;17.34;96842.31;5071666;28;20047;-79
2022/02/21 01:21:01;;;;;;;0.40;0.30;;;;;;;25.93;17.19;96841.53;5076941;28;20025;-79
2022/02/21 01:23:27;;;;;;;0.32;0.20;;;;;;;26.22;16.84;96830.47;5072978;28;20036;-79
2022/02/21 01:25:54;;;;;;;0.17;0.13;;;;;;;26.47;16.63;96820.75;5067906;28;20494;-79
2022/02/21 01:28:20;;;;;;;1.67;0.25;;;;;;;27.07;16.01;96817.63;5070668;28;20032;-79
2022/02/21 01:30:46;;;;;;;0.15;0.10;;;;;;;25.61;16.97;96792.47;5070622;28;20493;-79
2022/02/21 01:33:13;;;;;;;0.40;0.20;;;;;;;26.52;16.16;96798.34;5077302;28;20033;-80
2022/02/21 01:35:41;;;;;;;0.20;0.20;;;;;;;26.28;16.65;96782.75;5070327;28;20474;-80
2022/02/21 01:38:07;;;;;;;0.47;0.30;;;;;;;25.89;17.04;96790.31;5074027;28;20032;-80
2022/02/21 01:40:33;;;;;;;0.38;0.28;;;;;;;25.20;17.60;96782.00;5050632;28;20051;-79
2022/02/21 01:43:00;;;;;;;0.13;0.10;;;;;;;25.82;16.86;96785.03;5077121;28;20028;-80
2022/02/21 01:45:26;;;;;;;0.20;0.20;;;;;;;25.51;17.48;96781.75;5070957;28;20029;-80
2022/02/21 01:47:52;;;;;;;1.73;0.60;;;;;;;25.68;17.00;96771.66;5070492;28;20517;-79
2022/02/21 01:50:18;;;;;;;0.70;0.32;;;;;;;25.75;16.82;96776.94;5071467;28;20028;-80
2022/02/21 01:52:46;;;;;;;0.60;0.30;;;;;;;25.91;16.78;96763.25;5070525;28;20043;-79
2022/02/21 01:55:12;;;;;;;0.60;0.30;;;;;;;26.29;16.36;96754.13;5076245;28;20036;-80
2022/02/21 01:57:40;;;;;;;0.52;0.30;;;;;;;26.13;16.55;96757.38;5076565;28;20371;-80
2022/02/21 02:00:07;;;;;;;0.93;0.30;;;;;;;25.86;16.69;96752.66;5069838;28;20025;-79
2022/02/21 02:02:33;;;;;;;0.60;0.32;;;;;;;25.56;17.08;96738.94;5072441;28;20036;-79
2022/02/21 02:05:00;;;;;;;0.90;0.52;;;;;;;24.25;18.51;96730.19;5074358;28;20031;-79
2022/02/21 02:07:26;;;;;;;0.30;0.30;;;;;;;24.68;17.95;96733.41;5069616;28;20036;-79
2022/02/21 02:09:53;;;;;;;0.50;0.20;;;;;;;25.29;17.70;96723.75;5072007;28;20383;-79
2022/02/21 02:12:19;;;;;;;0.95;0.20;;;;;;;25.33;17.12;96703.91;5070503;28;20400;-79
2022/02/21 02:14:45;;;;;;;1.05;0.28;;;;;;;25.57;17.14;96709.59;5074182;28;20040;-79
2022/02/21 02:17:14;;;;;;;0.57;0.20;;;;;;;26.01;16.67;96708.50;5077731;28;20037;-79
2022/02/21 02:19:44;;;;;;;0.47;0.45;;;;;;;24.78;18.00;96691.31;5073362;28;20055;-79
2022/02/21 02:22:16;;;;;;;2.17;0.20;;;;;;;24.41;18.02;96699.75;5072709;28;20044;-79
2022/02/21 02:24:44;;;;;;;0.20;0.20;;;;;;;25.23;17.55;96697.53;5066879;28;20136;-79
2022/02/21 02:27:11;;;;;;;0.25;0.20;;;;;;;25.91;16.85;96690.16;5074657;28;20036;-79
2022/02/21 02:29:38;;;;;;;0.32;0.17;;;;;;;25.31;17.40;96683.94;5068030;28;20478;-79
2022/02/21 02:32:06;;;;;;;0.20;0.10;;;;;;;24.48;18.35;96684.66;5068256;28;20831;-79
2022/02/21 02:34:32;;;;;;;0.82;0.20;;;;;;;25.22;17.67;96681.94;5062306;28;20024;-79
2022/02/21 02:36:58;;;;;;;0.30;0.20;;;;;;;23.98;18.62;96660.81;5067504;28;20041;-79
2022/02/21 02:39:27;;;;;;;0.63;0.20;;;;;;;25.62;17.31;96680.81;5067406;28;20033;-79
2022/02/21 02:41:54;;;;;;;0.30;0.25;;;;;;;25.41;16.96;96683.41;5066004;28;20037;-79
2022/02/21 02:44:20;;;;;;;0.20;0.20;;;;;;;25.78;17.02;96680.41;5065474;28;20040;-79
2022/02/21 02:46:47;;;;;;;0.20;0.20;;;;;;;25.55;17.40;96655.88;5069380;28;20058;-79
2022/02/21 02:49:13;;;;;;;0.30;0.30;;;;;;;25.18;17.66;96669.34;5065227;28;20032;-79
2022/02/21 02:51:39;;;;;;;0.75;0.25;;;;;;;26.04;17.09;96650.53;5050283;28;20478;-79
2022/02/21 02:54:07;;;;;;;0.30;0.20;;;;;;;25.61;17.35;96659.56;5067554;28;20028;-79
2022/02/21 02:56:34;;;;;;;0.38;0.20;;;;;;;24.68;18.47;96654.03;5063130;28;20537;-79
2022/02/21 02:59:00;;;;;;;0.30;0.30;;;;;;;25.09;17.91;96655.31;5073362;28;20037;-79
2022/02/21 03:01:26;;;;;;;0.50;0.20;;;;;;;25.54;17.55;96646.66;5071500;28;20037;-79
2022/02/21 03:03:52;;;;;;;0.47;0.30;;;;;;;24.91;17.83;96647.75;5074760;28;20078;-79
2022/02/21 03:06:19;;;;;;;0.20;0.10;;;;;;;25.69;17.44;96641.91;5070475;28;20482;-79
2022/02/21 03:08:45;;;;;;;0.30;0.30;;;;;;;25.29;17.79;96639.47;5074377;28;20039;-79
2022/02/21 03:11:11;;;;;;;0.40;0.30;;;;;;;25.19;17.70;96637.16;5076911;28;20569;-79
2022/02/21 03:13:37;;;;;;;0.60;0.30;;;;;;;24.65;18.53;96624.09;5077246;28;20024;-79
2022/02/21 03:16:03;;;;;;;0.22;0.22;;;;;;;24.17;19.04;96630.78;5070816;28;20048;-79
2022/02/21 03:18:29;;;;;;;0.40;0.20;;;;;;;23.75;19.69;96633.41;5073193;28;20037;-79
2022/02/21 03:20:55;;;;;;;0.75;0.30;;;;;;;22.94;20.49;96629.16;5077404;28;20037;-79
2022/02/21 03:23:23;;;;;;;1.55;0.30;;;;;;;23.04;21.15;96641.97;5074885;28;20041;-79
2022/02/21 03:25:50;;;;;;;0.55;0.40;;;;;;;23.87;19.78;96640.91;5073004;28;20109;-79
2022/02/21 03:28:16;;;;;;;0.43;0.30;;;;;;;24.31;19.37;96624.53;5070971;28;20420;-79
2022/02/21 03:30:42;;;;;;;1.95;1.42;;;;;;;24.51;19.15;96638.81;5076844;28;20043;-79
2022/02/21 03:33:08;;;;;;;0.22;0.15;;;;;;;24.59;18.88;96635.22;5079456;28;20033;-79
2022/02/21 03:35:35;;;;;;;1.40;0.30;;;;;;;24.75;19.11;96634.06;5080272;28;20074;-79
2022/02/21 03:38:01;;;;;;;0.40;0.35;;;;;;;23.13;20.45;96622.38;5074824;28;20381;-79
2022/02/21 03:40:28;;;;;;;1.00;0.30;;;;;;;22.39;21.71;96619.72;5072158;28;20025;-79
2022/02/21 03:42:54;;;;;;;0.55;0.40;;;;;;;23.03;21.77;96634.03;5078917;28;20145;-80
2022/02/21 03:45:22;;;;;;;0.25;0.20;;;;;;;23.48;21.01;96614.53;5074469;28;20032;-79
2022/02/21 03:47:49;;;;;;;0.30;0.20;;;;;;;23.66;20.79;96614.59;5059344;28;20041;-79
2022/02/21 03:50:15;;;;;;;0.52;0.28;;;;;;;22.73;21.54;96609.66;5073876;28;20033;-79
2022/02/21 03:52:41;;;;;;;0.40;0.35;;;;;;;23.47;21.20;96587.00;5067991;28;20039;-79
2022/02/21 03:55:08;;;;;;;1.60;0.30;;;;;;;24.22;20.36;96602.88;5072723;28;20485;-79
2022/02/21 03:57:34;;;;;;;1.02;0.20;;;;;;;23.51;20.71;96594.00;5076201;28;20028;-79
2022/02/21 04:00:00;;;;;;;0.45;0.30;;;;;;;23.73;20.43;96572.25;5073028;28;20108;-79
2022/02/21 04:02:26;;;;;;;0.55;0.50;;;;;;;22.46;22.31;96574.72;5071235;28;20071;-79
2022/02/21 04:04:52;;;;;;;0.70;0.40;;;;;;;22.32;22.62;96580.84;5074439;28;20074;-79
2022/02/21 04:07:18;;;;;;;0.28;0.28;;;;;;;23.54;20.99;96573.47;5076235;28;20077;-78
2022/02/21 04:09:44;;;;;;;0.35;0.30;;;;;;;23.94;20.66;96584.50;5072307;28;20037;-79
2022/02/21 04:12:11;;;;;;;0.22;0.20;;;;;;;23.99;20.57;96570.63;5072996;28;20031;-79
2022/02/21 04:14:37;;;;;;;0.70;0.40;;;;;;;23.24;21.64;96563.91;5070871;28;20093;-79
2022/02/21 04:17:03;;;;;;;0.30;0.30;;;;;;;24.40;20.82;96571.97;5073299;28;20051;-80
2022/02/21 04:19:30;;;;;;;0.30;0.30;;;;;;;24.84;20.23;96560.28;5077760;28;20051;-80
2022/02/21 04:21:59;;;;;;;0.40;0.30;;;;;;;25.17;20.05;96550.56;5073192;28;20111;-80
2022/02/21 04:24:25;;;;;;;0.40;0.30;;;;;;;25.02;20.02;96538.50;5079645;28;20032;-79
2022/02/21 04:26:51;;;;;;;0.38;0.38;;;;;;;25.27;20.06;96526.78;5066562;28;20557;-79
2022/02/21 04:29:17;;;;;;;0.30;0.30;;;;;;;24.83;20.82;96502.59;5071174;28;20033;-79
2022/02/21 04:31:44;;;;;;;0.82;0.30;;;;;;;25.41;20.28;96497.19;5071480;28;20362;-80
2022/02/21 04:34:10;;;;;;;0.38;0.38;;;;;;;25.52;19.92;96485.41;5071930;28;20094;-79
2022/02/21 04:36:38;;;;;;;0.55;0.30;;;;;;;25.59;19.87;96480.19;5069043;28;20048;-79
2022/02/21 04:39:04;;;;;;;0.13;0.13;;;;;;;25.47;19.62;96467.16;5057345;28;20054;-79
2022/02/21 04:41:31;;;;;;;0.70;0.15;;;;;;;25.54;19.62;96471.63;5083843;28;20115;-79
2022/02/21 04:43:57;;;;;;;0.60;0.35;;;;;;;25.20;19.80;96467.38;5071757;28;20043;-79
2022/02/21 04:46:23;;;;;;;0.32;0.30;;;;;;;25.46;19.77;96468.44;5067539;28;20074;-79
2022/02/21 04:48:49;;;;;;;1.20;0.30;;;;;;;25.33;20.12;96457.44;5072283;28;20035;-79
2022/02/21 04:51:15;;;;;;;0.20;0.10;;;;;;;26.06;19.19;96465.16;5067471;28;20043;-79
2022/02/21 04:53:41;;;;;;;0.73;0.20;;;;;;;26.65;18.42;96455.34;5071779;28;20125;-79
2022/02/21 04:56:07;;;;;;;0.20;0.20;;;;;;;25.70;19.07;96454.28;5069549;28;20032;-79
2022/02/21 04:58:34;;;;;;;0.30;0.20;;;;;;;26.35;18.44;96444.69;5080121;28;20819;-79
2022/02/21 05:01:00;;;;;;;0.30;0.20;;;;;;;26.85;17.84;96439.78;5071657;28;20393;-79
2022/02/21 05:03:26;;;;;;;0.25;0.20;;;;;;;26.01;18.56;96427.25;5069801;28;20051;-79
2022/02/21 05:05:52;;;;;;;0.17;0.17;;;;;;;26.48;18.04;96423.41;5068959;28;20041;-79
2022/02/21 05:08:18;;;;;;;0.40;0.20;;;;;;;26.55;18.18;96414.53;5065500;28;20093;-80
2022/02/21 05:10:44;;;;;;;1.13;0.30;;;;;;;27.10;17.68;96411.69;5066379;28;20036;-79
2022/02/21 05:13:10;;;;;;;0.43;0.20;;;;;;;26.72;17.81;96406.31;5073198;28;20329;-79
2022/02/21 05:15:36;;;;;;;0.63;0.30;;;;;;;26.32;17.89;96389.38;5069855;28;20058;-79
2022/02/21 05:18:03;;;;;;;2.72;0.47;;;;;;;26.89;17.37;96386.81;5068314;28;20082;-79
2022/02/21 05:20:29;;;;;;;1.33;0.50;;;;;;;26.46;17.86;96380.91;5068335;28;20126;-79
2022/02/21 05:22:55;;;;;;;0.90;0.57;;;;;;;26.27;17.89;96368.34;5049943;28;20502;-78
2022/02/21 05:25:22;;;;;;;0.80;0.60;;;;;;;26.63;17.55;96369.84;5070267;28;20395;-79
2022/02/21 05:27:48;;;;;;;0.70;0.60;;;;;;;25.98;17.98;96357.91;5069296;28;20044;-79
2022/02/21 05:30:15;;;;;;;0.77;0.50;;;;;;;26.46;17.44;96347.13;5064383;28;20481;-79
2022/02/21 05:32:42;;;;;;;0.90;0.68;;;;;;;26.13;17.89;96348.69;5058898;28;20033;-79
2022/02/21 05:35:09;;;;;;;1.52;0.93;;;;;;;26.71;17.37;96343.59;5068794;28;20068;-79
2022/02/21 05:37:35;;;;;;;0.88;0.60;;;;;;;26.45;17.35;96331.50;5065515;28;20082;-80
2022/02/21 05:40:02;;;;;;;1.42;0.60;;;;;;;26.22;17.58;96334.50;5075333;28;20035;-79
2022/02/21 05:42:28;;;;;;;0.65;0.50;;;;;;;26.40;17.05;96334.22;5070542;28;20067;-79
2022/02/21 05:44:54;;;;;;;1.00;0.50;;;;;;;26.02;17.38;96352.09;5068016;28;20568;-79
2022/02/21 05:47:20;;;;;;;1.65;0.50;;;;;;;25.68;18.32;96355.63;5067393;28;20059;-79
2022/02/21 05:49:47;;;;;;;0.40;0.40;;;;;;;25.53;18.17;96352.06;5069575;28;20043;-79
2022/02/21 05:52:13;;;;;;;2.50;0.70;;;;;;;25.77;17.73;96353.47;5067563;28;20707;-79
2022/02/21 05:54:39;;;;;;;2.58;0.57;;;;;;;26.22;17.63;96352.16;5068637;28;20055;-79
2022/02/21 05:57:05;;;;;;;0.90;0.47;;;;;;;25.50;18.22;96358.66;5070958;28;20033;-79
2022/02/21 05:59:33;;;;;;;1.17;0.60;;;;;;;24.29;19.39;96377.38;5074922;28;20044;-79
2022/02/21 06:01:59;;;;;;;1.85;0.63;;;;;;;22.95;21.21;96369.66;5070954;28;20473;-79
2022/02/21 06:04:25;;;;;;;2.17;0.90;;;;;;;23.26;21.00;96370.25;5076705;28;20055;-80
2022/02/21 06:06:51;;;;;;;2.42;1.13;;;;;;;23.61;20.38;96357.44;5070252;28;20039;-80
2022/02/21 06:09:17;;;;;;;2.53;1.20;;;;;;;23.53;20.46;96367.41;5078704;28;20028;-79
2022/02/21 06:11:43;;;;;;;3.67;2.15;;;;;;;23.71;20.38;96366.59;5071686;28;20513;-80
2022/02/21 06:14:09;;;;;;;2.90;1.52;;;;;;;22.97;20.89;96356.75;5072109;28;20473;-79
2022/02/21 06:16:36;;;;;;;4.05;1.85;;;;;;;24.13;20.08;96366.56;5071762;28;20047;-79
2022/02/21 06:19:02;;;;;;;1.92;1.25;;;;;;;23.64;21.37;96375.31;5070683;28;20036;-79
2022/02/21 06:21:28;;;;;;;2.03;1.25;;;;;;;23.66;21.24;96356.78;5071127;28;20362;-79
2022/02/21 06:23:54;;;;;;;3.10;1.38;;;;;;;23.57;21.37;96342.78;5068426;28;20033;-79
2022/02/21 06:26:20;;;;;;;2.88;1.20;;;;;;;23.79;21.50;96359.38;5069469;28;20032;-79
2022/02/21 06:28:47;;;;;;;1.67;1.10;;;;;;;23.38;22.36;96365.75;5071390;28;20032;-79
2022/02/21 06:31:13;;;;;;;2.10;1.08;;;;;;;23.86;21.85;96348.59;5062355;28;20036;-78
2022/02/21 06:33:39;;;;;;;2.42;1.13;;;;;;;23.19;22.70;96322.97;5072163;28;20398;-79
2022/02/21 06:36:06;;;;;;;4.78;2.22;;;;;;;23.31;22.86;96369.63;5072248;28;20068;-79
2022/02/21 06:38:32;;;;;;;5.60;1.83;;;;;;;23.44;22.64;96353.44;5071940;28;20434;-79
2022/02/21 06:40:59;;;;;;;2.25;1.20;;;;;;;22.91;23.53;96377.44;5070501;28;20085;-79
2022/02/21 06:43:25;;;;;;;3.83;1.50;;;;;;;23.29;23.41;96370.06;5072980;28;20045;-79
2022/02/21 06:45:51;;;;;;;2.88;1.58;;;;;;;23.08;23.44;96367.47;5074366;28;20490;-79
2022/02/21 06:48:17;;;;;;;1.95;1.10;;;;;;;23.93;22.45;96365.06;5074334;28;20541;-78
2022/02/21 06:50:43;;;;;;;5.60;1.48;;;;;;;24.75;21.88;96358.97;5076024;28;20154;-79
2022/02/21 06:53:10;;;;;;;1.17;0.68;;;;;;;24.96;21.18;96357.91;5073779;28;20036;-79
2022/02/21 06:55:36;;;;;;;4.00;1.55;;;;;;;24.53;21.61;96359.28;5078283;28;20031;-79
2022/02/21 06:58:02;;;;;;;2.33;1.02;;;;;;;24.88;21.65;96365.13;5084404;28;20121;-79
2022/02/21 07:00:28;;;;;;;2.55;1.05;;;;;;;24.72;21.68;96373.97;5070256;28;20031;-78
2022/02/21 07:02:54;;;;;;;1.48;0.80;;;;;;;24.45;21.72;96371.38;5077464;28;20115;-79
2022/02/21 07:05:20;;;;;;;1.88;0.80;;;;;;;24.32;21.95;96387.66;5085057;28;20525;-78
2022/02/21 07:07:46;;;;;;;1.90;0.60;;;;;;;23.95;22.23;96368.19;5074500;28;20143;-78
2022/02/21 07:10:12;;;;;;;1.17;0.73;;;;;;;23.66;22.84;96378.41;5074942;28;20024;-78
2022/02/21 07:12:38;;;;;;;1.92;1.13;;;;;;;24.10;22.15;96381.53;5074317;28;20040;-79
2022/02/21 07:15:05;;;;;;;1.08;0.90;;;;;;;24.72;21.47;96382.38;5072778;28;20027;-78
2022/02/21 07:17:39;;;;;;;1.42;1.00;;;;;;;25.05;20.93;96371.06;5074247;28;20075;-78
2022/02/21 07:20:14;;;;;;;0.95;0.63;;;;;;;24.77;21.37;96392.97;5074896;28;20750;-78
2022/02/21 07:22:42;;;;;;;1.33;0.57;;;;;;;24.40;22.10;96389.63;5068559;28;20060;-78
2022/02/21 07:25:10;;;;;;;2.00;0.73;;;;;;;23.86;22.88;96379.44;5065789;28;20078;-78
2022/02/21 07:27:53;;;;;;;1.00;0.50;;;;;;;23.93;23.29;96381.91;5074346;28;20112;-78
2022/02/21 07:30:26;;;;;;;1.70;0.80;;;;;;;24.11;22.92;96383.84;5075186;28;20375;-79
2022/02/21 07:32:52;;;;;;;4.57;0.60;;;;;;;23.73;23.54;96372.47;5082096;28;20032;-79
2022/02/21 07:35:19;;;;;;;1.60;0.57;;;;;;;24.02;23.33;96378.25;5079913;28;20028;-79
2022/02/21 07:37:45;;;;;;;0.65;0.40;;;;;;;23.65;23.69;96383.25;5074630;28;20127;-79
2022/02/21 07:40:12;;;;;;;0.68;0.35;;;;;;;23.11;24.71;96378.50;5073740;28;20099;-78
2022/02/21 07:42:42;;;;;;;1.70;0.70;;;;;;;22.57;25.52;96368.06;5074839;28;21102;-78
2022/02/21 07:45:14;;;;;;;1.67;0.77;;;;;;;23.45;24.34;96377.41;5069231;28;20048;-78
2022/02/21 07:47:52;;;;;;;0.98;0.85;;;;;;;23.97;23.63;96370.50;5067055;28;20421;-79
2022/02/21 07:50:19;;;;;;;0.80;0.65;;;;;;;23.78;23.90;96367.00;5055471;28;20068;-79
2022/02/21 07:52:48;;;;;;;0.60;0.50;;;;;;;24.19;23.82;96367.47;5054602;28;20492;-79
2022/02/21 07:55:16;;;;;;;0.90;0.70;;;;;;;23.89;23.71;96349.69;5073927;28;20500;-79
2022/02/21 07:57:43;;;;;;;1.75;0.70;;;;;;;23.13;25.21;96344.44;5095216;28;20036;-79
2022/02/21 08:00:13;;;;;;;0.98;0.65;;;;;;;23.97;24.28;96348.84;5090665;28;20032;-79
2022/02/21 08:02:40;;;;;;;2.35;0.73;;;;;;;24.01;24.29;96346.63;5065042;28;20416;-79
2022/02/21 08:05:07;;;;;;;4.95;1.98;;;;;;;24.17;24.00;96355.94;5084075;28;20040;-79
2022/02/21 08:07:34;;;;;;;2.50;1.92;;;;;;;23.86;23.85;96337.38;5095546;28;20173;-79
2022/02/21 08:10:00;;;;;;;2.55;1.30;;;;;;;23.79;24.42;96342.56;5091981;28;20481;-78
2022/02/21 08:12:27;;;;;;;1.17;0.80;;;;;;;23.07;25.14;96344.31;5070462;28;20025;-79
2022/02/21 08:14:53;;;;;;;1.88;0.85;;;;;;;23.71;24.66;96335.75;5087494;28;20032;-79
2022/02/21 08:17:19;;;;;;;1.67;1.10;;;;;;;24.27;24.26;96343.44;5087814;28;20033;-79
2022/02/21 08:19:45;;;;;;;14.05;6.70;;;;;;;24.79;23.44;96325.13;5074769;28;20047;-79
2022/02/21 08:22:11;;;;;;;23.20;11.68;;;;;;;25.51;22.70;96326.50;5070796;28;20543;-79
2022/02/21 08:24:37;;;;;;;9.27;4.75;;;;;;;25.58;22.39;96320.47;5085013;28;20044;-79
2022/02/21 08:27:04;;;;;;;5.38;3.13;;;;;;;25.52;22.56;96322.41;5068505;28;20035;-79
2022/02/21 08:29:36;;;;;;;10.27;5.10;;;;;;;25.22;22.58;96305.53;5083494;28;20036;-79
2022/02/21 08:32:02;;;;;;;3.80;2.90;;;;;;;25.58;22.07;96315.59;5076581;28;20093;-79
2022/02/21 08:34:29;;;;;;;3.90;3.58;;;;;;;25.18;22.38;96318.22;5073448;28;20028;-79
2022/02/21 08:36:56;;;;;;;4.32;2.70;;;;;;;24.74;23.28;96318.13;5083274;28;20576;-78
2022/02/21 08:39:22;;;;;;;2.28;1.48;;;;;;;24.65;22.73;96321.00;5071738;28;20116;-79
2022/02/21 08:41:48;;;;;;;2.53;1.48;;;;;;;25.36;22.34;96313.19;5074237;28;20028;-79
2022/02/21 08:44:14;;;;;;;1.20;1.00;;;;;;;24.43;23.48;96307.31;5086638;28;20481;-79
2022/02/21 08:46:40;;;;;;;1.13;0.73;;;;;;;24.49;23.04;96299.00;5091657;28;20086;-78
2022/02/21 08:49:06;;;;;;;1.20;0.70;;;;;;;24.99;22.83;96314.03;5092748;28;20089;-79
2022/02/21 08:51:33;;;;;;;1.65;0.70;;;;;;;24.74;22.80;96298.47;5085677;28;20481;-79
2022/02/21 08:54:02;;;;;;;1.75;0.60;;;;;;;25.76;21.72;96301.34;5055371;28;20115;-79
2022/02/21 08:56:28;;;;;;;0.90;0.50;;;;;;;25.49;21.73;96298.06;5075773;28;20394;-79
2022/02/21 08:58:54;;;;;;;0.55;0.50;;;;;;;26.19;20.95;96296.84;5070525;28;20440;-79
2022/02/21 09:01:20;;;;;;;0.88;0.63;;;;;;;25.56;21.35;96283.63;5072892;28;20024;-78
2022/02/21 09:03:47;;;;;;;0.82;0.60;;;;;;;26.07;21.13;96289.50;5072624;28;20071;-79
2022/02/21 09:06:13;;;;;;;1.10;0.55;;;;;;;25.41;21.53;96281.56;5073042;28;20107;-79
2022/02/21 09:08:39;;;;;;;0.80;0.77;;;;;;;25.07;21.96;96285.09;5072997;28;20121;-78
2022/02/21 09:11:05;;;;;;;0.90;0.70;;;;;;;25.95;20.91;96274.50;5080915;28;20029;-79
2022/02/21 09:13:31;;;;;;;1.40;1.02;;;;;;;25.23;21.25;96278.97;5072554;28;20041;-79
2022/02/21 09:15:57;;;;;;;1.35;0.88;;;;;;;25.22;21.53;96276.66;5080529;28;20032;-78
2022/02/21 09:18:23;;;;;;;1.60;0.93;;;;;;;25.43;21.26;96267.06;5094372;28;20036;-78
2022/02/21 09:20:50;;;;;;;0.70;0.60;;;;;;;25.94;20.70;96277.81;5067372;28;20032;-79
2022/02/21 09:23:16;;;;;;;0.75;0.40;;;;;;;25.50;21.47;96261.06;5074185;28;20393;-79
2022/02/21 09:25:42;;;;;;;0.60;0.52;;;;;;;25.31;21.41;96268.13;5072696;28;20048;-78
2022/02/21 09:28:09;;;;;;;0.38;0.30;;;;;;;25.56;21.12;96275.19;5072571;28;20040;-76
2022/02/21 09:30:35;;;;;;;0.32;0.20;;;;;;;25.32;21.54;96276.06;5074530;28;20160;-76
2022/02/21 09:33:05;;;;;;;1.20;0.50;;;;;;;24.92;22.04;96263.88;5081371;28;20448;-76
2022/02/21 09:35:31;;;;;;;0.47;0.40;;;;;;;25.70;20.75;96271.56;5062116;28;20036;-76
2022/02/21 09:37:58;;;;;;;0.60;0.47;;;;;;;25.64;20.77;96268.69;5082782;28;20075;-76
2022/02/21 09:40:24;;;;;;;0.43;0.30;;;;;;;25.36;20.75;96273.84;5073256;28;20082;-76
2022/02/21 09:42:50;;;;;;;0.68;0.30;;;;;;;26.21;20.14;96263.38;5073456;28;20033;-76
2022/02/21 09:45:18;;;;;;;0.50;0.50;;;;;;;25.99;20.12;96254.63;5072613;28;20047;-76
2022/02/21 09:47:44;;;;;;;0.50;0.40;;;;;;;25.76;20.44;96262.00;5084115;28;20489;-76
2022/02/21 09:50:11;;;;;;;0.30;0.30;;;;;;;25.44;20.63;96260.19;5081286;28;20506;-76
2022/02/21 09:52:38;;;;;;;0.50;0.40;;;;;;;25.81;20.64;96263.34;5076013;28;20064;-76
2022/02/21 09:55:05;;;;;;;0.73;0.30;;;;;;;26.23;20.17;96277.75;5090937;28;20032;-76
2022/02/21 09:57:31;;;;;;;0.43;0.43;;;;;;;26.15;20.25;96267.38;5088242;28;20039;-76
2022/02/21 09:59:59;;;;;;;1.00;0.40;;;;;;;26.39;19.82;96274.38;5076104;28;20079;-76
2022/02/21 10:02:29;;;;;;;1.65;0.50;;;;;;;26.61;19.92;96273.84;5050356;28;20028;-76
2022/02/21 10:05:17;;;;;;;0.98;0.40;;;;;;;27.00;18.88;96260.22;5075458;28;20036;-76
2022/02/21 10:07:44;;;;;;;1.25;0.50;;;;;;;26.62;19.69;96276.19;5073591;28;20482;-76
2022/02/21 10:10:12;;;;;;;0.60;0.30;;;;;;;26.77;19.55;96272.53;5085252;28;20028;-76
2022/02/21 10:12:53;;;;;;;0.70;0.32;;;;;;;27.00;19.35;96274.31;5091247;28;20071;-76
2022/02/21 10:15:31;;;;;;;0.73;0.50;;;;;;;27.68;18.97;96277.97;5089947;28;20508;-76
2022/02/21 10:18:12;;;;;;;0.20;0.20;;;;;;;26.89;19.26;96274.16;5073099;28;20393;-76
2022/02/21 10:20:50;;;;;;;;;;;;;;;27.18;18.95;96265.50;5075753;28;20081;-78
2022/02/21 10:23:16;;;;;;;0.40;0.40;;;;;;;27.40;18.52;96282.63;5093792;28;19912;-79
2022/02/21 10:25:54;;;;;;;0.50;0.38;;;;;;;27.11;18.97;96282.84;5095096;28;20040;-79
2022/02/21 10:28:27;;;;;;;0.28;0.28;;;;;;;26.96;19.11;96277.31;5097250;28;20035;-76
2022/02/21 10:31:23;;;;;;;0.40;0.35;;;;;;;27.27;18.46;96268.94;5075874;28;20036;-76
2022/02/21 10:34:05;;;;;;;0.57;0.30;;;;;;;25.97;19.58;96263.56;5075934;28;20574;-76
2022/02/21 10:36:45;;;;;;;0.30;0.30;;;;;;;27.09;18.60;96277.72;5082918;28;20025;-76
2022/02/21 10:39:14;;;;;;;0.77;0.43;;;;;;;26.31;19.38;96287.31;5080419;28;20028;-78
2022/02/21 10:41:51;;;;;;;0.28;0.20;;;;;;;26.08;19.73;96285.44;5078690;28;20035;-79
2022/02/21 10:44:19;;;;;;;0.20;0.20;;;;;;;26.00;19.79;96293.50;5061869;28;20502;-79
2022/02/21 10:47:00;;;;;;;0.30;0.20;;;;;;;26.01;19.54;96302.72;5081349;28;20044;-79
2022/02/21 10:49:26;;;;;;;;;;;;;;;25.94;19.64;96301.09;5077051;28;20032;-78
2022/02/21 10:51:57;;;;;;;0.50;0.43;;;;;;;24.52;21.28;96298.06;5077042;28;20547;-78
2022/02/21 10:54:29;;;;;;;;;;;;;;;25.05;20.52;96289.63;5076141;28;20036;-79
2022/02/21 10:56:55;;;;;;;0.50;0.50;;;;;;;25.79;20.20;96285.53;5092033;28;19977;-79
2022/02/21 10:59:23;;;;;;;0.75;0.50;;;;;;;25.15;20.71;96282.69;5080148;28;20119;-79
2022/02/21 11:01:49;;;;;;;1.23;0.50;;;;;;;24.93;20.61;96305.50;5077226;28;20024;-79
2022/02/21 11:04:16;;;;;;;0.30;0.30;;;;;;;25.53;20.35;96309.91;5074973;28;20044;-79
2022/02/21 11:06:42;;;;;;;1.35;0.52;;;;;;;25.02;20.71;96304.66;5073270;28;20025;-79
2022/02/21 11:09:11;;;;;;;0.38;0.38;;;;;;;25.61;20.18;96323.06;5079752;28;20145;-79
2022/02/21 11:11:50;;;;;;;0.90;0.57;;;;;;;25.22;20.75;96316.78;5074322;28;20025;-79
2022/02/21 11:14:25;;;;;;;0.40;0.40;;;;;;;25.50;20.84;96322.91;5077022;28;20039;-78
2022/02/21 11:16:52;;;;;;;1.20;0.60;;;;;;;25.42;20.46;96330.13;5067350;28;20032;-79
2022/02/21 11:19:19;;;;;;;0.98;0.55;;;;;;;26.08;20.14;96336.84;5074461;28;20485;-78
2022/02/21 11:21:46;;;;;;;1.92;0.65;;;;;;;25.24;21.01;96331.09;5074502;28;20032;-78
2022/02/21 11:24:15;;;;;;;1.42;0.70;;;;;;;25.27;20.84;96335.78;5074192;28;20020;-79
2022/02/21 11:26:55;;;;;;;1.27;0.50;;;;;;;25.03;21.07;96345.50;5088860;28;20085;-75
2022/02/21 11:29:43;;;;;;;0.70;0.47;;;;;;;25.32;20.79;96357.53;5083867;28;20037;-76
2022/02/21 11:32:21;;;;;;;0.80;0.50;;;;;;;23.51;22.80;96386.72;5075235;28;20024;-76
2022/02/21 11:35:08;;;;;;;0.60;0.45;;;;;;;24.10;22.47;96390.72;5094469;28;20036;-76